»·PEaware :: N346CP KCRQ-KTOA

N346CP :: KCRQ-KTOA

FLIGHT INFORMATION

Flight Status: Arrived
Operator: Privately registered:
United States
More flights under this callsign
Pilot: Ron M. (31128)
Aircraft: CESSNA 172 SKYHAWK
(C172)
More flights by this aircraft type
Origin: KCRQ McClellan-Palomar
United States
Destination: KTOA Zamperini
United States
More flights between these airports :: More routes between these airports
Route:
File this flight plan on PilotEdge
Remarks:
Altitude:
(Current/Filed)
3,500ft
Speed:
(Current/Filed)
0kts
Departed: 22-Feb-21 03:52 PM
Arrived: 22-Feb-21 04:29 PM
Distance/Time
Traveled:
67nm/0:37
Distance/Time
To Go:
Arrived

Flight Plot

Page will automatically refresh every two minutes.


Map Options




Map Legend


Flown Route
Filed Route
Departure Airport
Arrival Airport
Navaid (VOR, NDB)
Fix

Horizontal Profiles

Position Reports

Time Latitude Longitude Heading Altitude Ground
Speed
22-Feb-21 15:50 33.132904 -117.321154 275 2044ft 69kts
22-Feb-21 15:51 33.134812 -117.343490 309 2803ft 72kts
22-Feb-21 15:52 33.149369 -117.361332 313 3380ft 92kts
22-Feb-21 15:53 33.170710 -117.384277 317 3575ft 105kts
22-Feb-21 15:54 33.195187 -117.406552 319 3618ft 117kts
22-Feb-21 15:55 33.222266 -117.428599 318 3482ft 111kts
22-Feb-21 15:56 33.243810 -117.454324 307 3393ft 103kts
22-Feb-21 15:57 33.261806 -117.479998 306 3418ft 100kts
22-Feb-21 15:58 33.280065 -117.503981 311 3551ft 96kts
22-Feb-21 15:59 33.299735 -117.528872 307 3785ft 102kts
22-Feb-21 16:00 33.319775 -117.558436 310 3451ft 120kts
22-Feb-21 16:01 33.339891 -117.585698 304 3440ft 98kts
22-Feb-21 16:02 33.356591 -117.613356 302 3579ft 105kts
22-Feb-21 16:03 33.375020 -117.642713 306 3611ft 113kts
22-Feb-21 16:04 33.398365 -117.669540 312 3411ft 110kts
22-Feb-21 16:05 33.420448 -117.693850 311 3456ft 105kts
22-Feb-21 16:06 33.439602 -117.719102 307 3559ft 107kts
22-Feb-21 16:07 33.459867 -117.746749 307 3442ft 120kts
22-Feb-21 16:08 33.479258 -117.776767 304 3506ft 107kts
22-Feb-21 16:09 33.498524 -117.805359 302 3493ft 111kts
22-Feb-21 16:10 33.516833 -117.835141 305 3510ft 111kts
22-Feb-21 16:11 33.535742 -117.864518 302 3511ft 111kts
22-Feb-21 16:12 33.553575 -117.894881 300 3514ft 111kts
22-Feb-21 16:13 33.570579 -117.925900 301 3520ft 112kts
22-Feb-21 16:14 33.588523 -117.956452 298 3526ft 112kts
22-Feb-21 16:15 33.604844 -117.988523 302 3536ft 112kts
22-Feb-21 16:16 33.621979 -118.019961 302 3552ft 113kts
22-Feb-21 16:17 33.643679 -118.048073 319 3553ft 119kts
22-Feb-21 16:18 33.667818 -118.073410 317 3635ft 117kts
22-Feb-21 16:20 33.688934 -118.102145 298 3571ft 121kts
22-Feb-21 16:21 33.706477 -118.135946 301 3276ft 112kts
22-Feb-21 16:22 33.722529 -118.167491 299 2979ft 111kts
22-Feb-21 16:23 33.739504 -118.197488 299 2615ft 106kts
22-Feb-21 16:24 33.756028 -118.225048 298 2203ft 99kts
22-Feb-21 16:25 33.770805 -118.252057 301 1469ft 96kts
22-Feb-21 16:26 33.781636 -118.278647 282 1048ft 71kts
22-Feb-21 16:27 33.787183 -118.301170 271 760ft 70kts
22-Feb-21 16:28 33.792005 -118.321362 303 467ft 66kts
22-Feb-21 16:29 33.802000 -118.336527 309 97ft 25kts
22-Feb-21 16:30 33.804892 -118.340913 308 95ft 16kts
22-Feb-21 16:31 33.805839 -118.343748 286 92ft 0kts
22-Feb-21 16:32 33.805839 -118.343748 286 92ft 0kts
22-Feb-21 16:33 33.805839 -118.343748 286 92ft 0kts
22-Feb-21 16:34 33.805934 -118.344988 226 92ft 6kts
22-Feb-21 16:35 33.804483 -118.345830 169 98ft 0kts
22-Feb-21 16:36 33.804425 -118.345808 160 98ft 1kts
22-Feb-21 16:37 33.804285 -118.345704 134 98ft 0kts
22-Feb-21 16:38 33.804285 -118.345704 134 98ft 0kts
22-Feb-21 16:39 33.804285 -118.345704 134 98ft 0kts
22-Feb-21 16:40 33.804285 -118.345704 134 98ft 0kts
22-Feb-21 16:40 33.804285 -118.345704 134 98ft 0kts
22-Feb-21 16:42 33.804285 -118.345704 134 98ft 0kts
22-Feb-21 16:43 33.804285 -118.345704 134 98ft 0kts

Navigation Log

Ident Type
Flight plan parsing failed, navigation log unavailable